createdAt,value
2022-08-30T00:01:06.523Z,55.61
2022-08-30T00:03:38.645Z,54.56
2022-08-30T00:06:06.887Z,53.25
2022-08-30T00:08:34.988Z,52.99
2022-08-30T00:11:03.213Z,52.63
2022-08-30T00:13:29.873Z,53.04
2022-08-30T00:15:57.408Z,53.38
2022-08-30T00:18:24.599Z,53.27
2022-08-30T00:20:52.194Z,53.13
2022-08-30T00:23:19.770Z,53.29
2022-08-30T00:25:46.397Z,53.23
2022-08-30T00:28:14.430Z,53.10
2022-08-30T00:30:41.976Z,53.40
2022-08-30T00:33:09.664Z,54.53
2022-08-30T00:35:36.589Z,54.80
2022-08-30T00:38:03.136Z,53.74
2022-08-30T00:40:30.749Z,53.71
2022-08-30T00:42:59.957Z,55.08
2022-08-30T00:45:36.560Z,54.93
2022-08-30T00:48:05.541Z,54.81
2022-08-30T00:50:40.095Z,55.93
2022-08-30T00:53:10.710Z,55.62
2022-08-30T00:55:39.091Z,56.10
2022-08-30T00:58:12.984Z,55.46
2022-08-30T01:00:40.112Z,54.62
2022-08-30T01:03:08.414Z,54.94
2022-08-30T01:05:38.652Z,55.97
2022-08-30T01:08:05.759Z,59.76
2022-08-30T01:10:34.793Z,55.57
2022-08-30T01:13:01.723Z,55.45
2022-08-30T01:15:28.556Z,55.56
2022-08-30T01:17:56.866Z,56.06
2022-08-30T01:20:32.178Z,58.41
2022-08-30T01:23:06.304Z,57.73
2022-08-30T01:25:37.290Z,59.49
2022-08-30T01:28:07.760Z,56.80
2022-08-30T01:30:35.698Z,56.07
2022-08-30T01:33:04.419Z,57.57
2022-08-30T01:35:43.260Z,59.78
2022-08-30T01:38:11.419Z,56.46
2022-08-30T01:40:38.041Z,57.05
2022-08-30T01:43:04.663Z,56.51
2022-08-30T01:45:31.262Z,56.74
2022-08-30T01:47:57.755Z,57.11
2022-08-30T01:50:28.198Z,56.51
2022-08-30T01:52:55.170Z,56.27
2022-08-30T01:55:21.819Z,56.36
2022-08-30T01:57:49.769Z,56.68
2022-08-30T02:00:17.885Z,57.12
2022-08-30T02:02:44.673Z,57.23
2022-08-30T02:05:11.800Z,58.42
2022-08-30T02:07:38.415Z,58.52
2022-08-30T02:10:06.001Z,58.06
2022-08-30T02:12:32.597Z,58.14
2022-08-30T02:14:59.073Z,58.09
2022-08-30T02:17:25.929Z,58.06
2022-08-30T02:19:52.569Z,58.07
2022-08-30T02:22:20.973Z,58.03
2022-08-30T02:24:47.534Z,58.06
2022-08-30T02:27:14.052Z,58.63
2022-08-30T02:29:40.605Z,59.04
2022-08-30T02:32:07.149Z,59.28
2022-08-30T02:34:33.701Z,61.49
2022-08-30T02:37:01.030Z,60.73
2022-08-30T02:39:27.576Z,60.93
2022-08-30T02:41:54.071Z,60.65
2022-08-30T02:44:20.573Z,60.64
2022-08-30T02:46:48.133Z,61.56
2022-08-30T02:49:33.622Z,60.33
2022-08-30T02:52:00.534Z,62.04
2022-08-30T02:54:28.342Z,61.37
2022-08-30T02:56:55.803Z,62.90
2022-08-30T02:59:22.292Z,61.77
2022-08-30T03:01:49.083Z,61.59
2022-08-30T03:04:15.995Z,61.22
2022-08-30T03:06:42.512Z,61.10
2022-08-30T03:09:09.073Z,61.16
2022-08-30T03:11:35.641Z,61.39
2022-08-30T03:14:02.281Z,61.36
2022-08-30T03:16:28.776Z,61.23
2022-08-30T03:18:55.649Z,61.48
2022-08-30T03:21:22.197Z,61.12
2022-08-30T03:23:48.757Z,61.40
2022-08-30T03:26:15.447Z,61.33
2022-08-30T03:28:43.221Z,61.46
2022-08-30T03:31:09.807Z,62.30
2022-08-30T03:33:37.709Z,62.65
2022-08-30T03:36:04.350Z,62.96
2022-08-30T03:38:31.177Z,62.37
2022-08-30T03:40:57.908Z,62.59
2022-08-30T03:43:25.315Z,63.50
2022-08-30T03:45:52.506Z,63.26
2022-08-30T03:48:19.123Z,63.78
2022-08-30T03:50:45.855Z,63.95
2022-08-30T03:53:12.494Z,63.12
2022-08-30T03:55:39.011Z,63.05
2022-08-30T03:58:06.151Z,63.77
2022-08-30T04:00:32.707Z,63.31
2022-08-30T04:02:59.226Z,63.11
2022-08-30T04:05:27.258Z,63.18
2022-08-30T04:07:54.026Z,63.41
2022-08-30T04:10:21.338Z,63.47
2022-08-30T04:12:49.972Z,63.71
2022-08-30T04:15:18.331Z,64.68
2022-08-30T04:17:45.219Z,65.45
2022-08-30T04:20:11.917Z,66.54
2022-08-30T04:22:38.573Z,67.27
2022-08-30T04:25:06.315Z,66.85
2022-08-30T04:27:32.943Z,65.97
2022-08-30T04:30:00.185Z,66.95
2022-08-30T04:32:27.526Z,67.05
2022-08-30T04:34:58.587Z,69.00
2022-08-30T04:37:25.506Z,67.96
2022-08-30T04:40:00.591Z,69.29
2022-08-30T04:42:30.033Z,67.02
2022-08-30T04:44:56.954Z,66.96
2022-08-30T04:47:23.635Z,67.19
2022-08-30T04:49:50.081Z,67.11
2022-08-30T04:52:16.674Z,67.86
2022-08-30T04:54:43.167Z,66.93
2022-08-30T04:57:09.775Z,68.54
2022-08-30T04:59:36.334Z,66.97
2022-08-30T05:02:02.855Z,66.97
2022-08-30T05:04:29.611Z,66.61
2022-08-30T05:06:56.179Z,67.60
2022-08-30T05:09:22.902Z,69.78
2022-08-30T05:11:49.452Z,69.12
2022-08-30T05:14:15.995Z,69.72
2022-08-30T05:16:43.052Z,68.25
2022-08-30T05:19:09.672Z,68.06
2022-08-30T05:21:37.076Z,67.74
2022-08-30T05:24:03.735Z,67.55
2022-08-30T05:26:34.087Z,68.08
2022-08-30T05:29:00.915Z,68.08
2022-08-30T05:31:31.279Z,70.46
2022-08-30T05:33:57.911Z,69.08
2022-08-30T05:36:27.184Z,68.14
2022-08-30T05:38:54.948Z,67.87
2022-08-30T05:41:23.498Z,67.98
2022-08-30T05:43:58.357Z,68.04
2022-08-30T05:46:26.191Z,67.40
2022-08-30T05:48:52.853Z,66.83
2022-08-30T05:51:21.530Z,67.14
2022-08-30T05:53:49.596Z,66.83
2022-08-30T05:56:19.334Z,66.71
2022-08-30T05:58:46.762Z,65.89
2022-08-30T06:01:34.515Z,66.32
2022-08-30T06:04:04.077Z,65.78
2022-08-30T06:06:33.165Z,65.57
2022-08-30T06:09:01.013Z,65.08
2022-08-30T06:11:30.227Z,64.49
2022-08-30T06:13:57.309Z,63.84
2022-08-30T06:16:26.592Z,63.40
2022-08-30T06:18:54.352Z,63.19
2022-08-30T06:21:23.909Z,62.76
2022-08-30T06:23:50.759Z,61.67
2022-08-30T06:26:17.490Z,60.78
2022-08-30T06:28:44.097Z,60.18
2022-08-30T06:31:12.314Z,58.67
2022-08-30T06:33:39.459Z,57.37
2022-08-30T06:36:08.767Z,57.23
2022-08-30T06:38:36.233Z,57.72
2022-08-30T06:41:11.432Z,57.70
2022-08-30T06:43:37.962Z,57.95
2022-08-30T06:46:13.289Z,57.82
2022-08-30T06:48:41.515Z,56.99
2022-08-30T06:51:09.668Z,56.32
2022-08-30T06:53:36.590Z,56.23
2022-08-30T06:56:07.335Z,56.27
2022-08-30T06:58:36.988Z,55.95
2022-08-30T07:01:05.210Z,56.64
2022-08-30T07:03:31.954Z,56.94
2022-08-30T07:05:58.457Z,57.08
2022-08-30T07:08:25.558Z,56.54
2022-08-30T07:10:54.559Z,56.08
2022-08-30T07:13:23.987Z,55.88
2022-08-30T07:15:51.452Z,54.52
2022-08-30T07:18:37.014Z,54.67
2022-08-30T07:21:10.647Z,52.66
2022-08-30T07:23:38.844Z,53.31
2022-08-30T07:26:07.428Z,51.48
2022-08-30T07:28:34.831Z,49.95
2022-08-30T07:31:02.199Z,49.39
2022-08-30T07:33:28.835Z,48.99
2022-08-30T07:35:55.324Z,48.34
2022-08-30T07:38:21.914Z,48.79
2022-08-30T07:40:48.553Z,48.96
2022-08-30T07:43:15.099Z,48.63
2022-08-30T07:45:41.587Z,49.11
2022-08-30T07:48:08.417Z,48.91
2022-08-30T07:50:34.976Z,48.38
2022-08-30T07:53:02.028Z,48.86
2022-08-30T07:55:28.557Z,48.99
2022-08-30T07:57:55.125Z,48.86
2022-08-30T08:00:21.787Z,48.73
2022-08-30T08:02:48.417Z,48.88
2022-08-30T08:05:17.628Z,46.42
2022-08-30T08:07:45.490Z,46.94
2022-08-30T08:10:13.434Z,47.15
2022-08-30T08:12:40.834Z,46.96
2022-08-30T08:15:08.958Z,47.08
2022-08-30T08:17:35.639Z,46.27
2022-08-30T08:20:02.701Z,46.05
2022-08-30T08:22:29.216Z,46.91
2022-08-30T08:24:55.687Z,46.00
2022-08-30T08:27:24.671Z,44.90
2022-08-30T08:29:51.213Z,42.13
2022-08-30T08:32:17.750Z,40.33
2022-08-30T08:34:44.423Z,39.51
2022-08-30T08:37:11.033Z,39.89
2022-08-30T08:39:37.560Z,41.47
2022-08-30T08:42:19.052Z,39.84
2022-08-30T08:44:55.429Z,40.94
2022-08-30T08:47:25.706Z,39.51
2022-08-30T08:49:57.441Z,40.10
2022-08-30T08:52:48.635Z,40.39
2022-08-30T08:55:20.570Z,40.60
2022-08-30T08:57:47.976Z,41.39
2022-08-30T09:00:15.562Z,39.98
2022-08-30T09:02:46.383Z,38.97
2022-08-30T09:05:22.178Z,38.40
2022-08-30T09:07:52.458Z,40.09
2022-08-30T09:10:40.380Z,41.15
2022-08-30T09:13:07.656Z,40.10
2022-08-30T09:15:39.948Z,41.39
2022-08-30T09:18:10.182Z,40.32
2022-08-30T09:20:48.971Z,40.97
2022-08-30T09:23:15.409Z,41.24
2022-08-30T09:25:59.813Z,40.90
2022-08-30T09:28:29.154Z,40.96
2022-08-30T09:31:20.739Z,39.29
2022-08-30T09:34:03.770Z,40.18
2022-08-30T09:36:51.385Z,40.40
2022-08-30T09:39:19.290Z,40.23
2022-08-30T09:41:49.221Z,39.66
2022-08-30T09:44:28.035Z,38.26
2022-08-30T09:46:57.733Z,38.32
2022-08-30T09:49:39.748Z,38.11
2022-08-30T09:52:13.195Z,37.05
2022-08-30T09:54:53.801Z,37.08
2022-08-30T09:57:43.297Z,36.22
2022-08-30T10:00:23.937Z,36.34
2022-08-30T10:03:40.706Z,36.31
2022-08-30T10:06:23.708Z,36.72
2022-08-30T10:09:09.653Z,37.89
2022-08-30T10:11:48.287Z,38.39
2022-08-30T10:14:36.553Z,38.01
2022-08-30T10:17:06.147Z,37.66
2022-08-30T10:19:51.508Z,37.30
2022-08-30T10:22:26.781Z,37.80
2022-08-30T10:25:16.962Z,37.93
2022-08-30T10:27:48.548Z,37.89
2022-08-30T10:30:17.166Z,38.28
2022-08-30T10:32:52.492Z,37.19
2022-08-30T10:35:23.984Z,38.02
2022-08-30T10:37:55.541Z,37.26
2022-08-30T10:40:56.409Z,36.51
2022-08-30T10:43:44.982Z,35.69
2022-08-30T10:46:24.667Z,35.89
2022-08-30T10:48:53.876Z,36.60
2022-08-30T10:51:31.603Z,35.71
2022-08-30T10:54:08.191Z,36.15
2022-08-30T10:56:40.700Z,35.58
2022-08-30T10:59:07.553Z,34.72
2022-08-30T11:02:08.488Z,34.87
2022-08-30T11:04:45.597Z,35.14
2022-08-30T11:07:38.236Z,35.19
2022-08-30T11:10:23.941Z,35.14
2022-08-30T11:13:16.007Z,35.11
2022-08-30T11:16:06.736Z,34.31
2022-08-30T11:18:44.719Z,33.75
2022-08-30T11:21:33.328Z,34.27
2022-08-30T11:24:10.817Z,34.48
2022-08-30T11:26:46.932Z,34.48
2022-08-30T11:29:32.945Z,34.59
2022-08-30T11:32:20.915Z,35.14
2022-08-30T11:34:47.437Z,35.03
2022-08-30T11:37:37.049Z,35.32
2022-08-30T11:40:24.615Z,35.15
2022-08-30T11:42:55.007Z,35.00
2022-08-30T11:45:25.093Z,35.06
2022-08-30T11:48:00.066Z,35.51
2022-08-30T11:50:49.808Z,34.52
2022-08-30T11:54:05.907Z,34.89
2022-08-30T11:56:46.012Z,35.38
2022-08-30T11:59:46.759Z,35.38
2022-08-30T12:02:56.039Z,35.49
2022-08-30T12:05:40.863Z,36.26
2022-08-30T12:08:10.740Z,36.19
2022-08-30T12:10:39.645Z,35.83
2022-08-30T12:13:06.999Z,36.20
2022-08-30T12:15:52.417Z,36.08
2022-08-30T12:18:28.429Z,35.81
2022-08-30T12:21:01.377Z,36.46
2022-08-30T12:23:52.633Z,35.87
2022-08-30T12:26:26.051Z,35.47
2022-08-30T12:29:12.864Z,35.70
2022-08-30T12:32:05.399Z,36.08
2022-08-30T12:34:41.114Z,36.65
2022-08-30T12:37:29.036Z,36.29
2022-08-30T12:40:16.049Z,36.44
2022-08-30T12:43:00.215Z,36.87
2022-08-30T12:45:44.944Z,36.50
2022-08-30T12:48:19.651Z,36.50
2022-08-30T12:50:55.575Z,37.49
2022-08-30T12:53:41.921Z,37.04
2022-08-30T12:56:14.872Z,35.83
2022-08-30T12:58:53.518Z,35.00
2022-08-30T13:01:31.363Z,35.07
2022-08-30T13:04:19.126Z,34.76
2022-08-30T13:06:58.312Z,34.71
2022-08-30T13:09:44.034Z,35.04
2022-08-30T13:12:22.275Z,35.02
2022-08-30T13:14:49.893Z,35.63
2022-08-30T13:17:18.886Z,35.17
2022-08-30T13:19:57.710Z,35.00
2022-08-30T13:22:49.530Z,34.56
2022-08-30T13:25:19.758Z,35.23
2022-08-30T13:27:46.255Z,35.29
2022-08-30T13:30:18.393Z,34.66
2022-08-30T13:32:44.951Z,35.03
2022-08-30T13:35:12.087Z,36.08
2022-08-30T13:37:50.026Z,35.58
2022-08-30T13:40:19.797Z,35.44
2022-08-30T13:42:46.650Z,35.09
2022-08-30T13:48:01.610Z,35.28
2022-08-30T13:50:28.198Z,34.37
2022-08-30T13:52:57.247Z,34.79
2022-08-30T13:55:23.907Z,34.79
2022-08-30T13:57:54.407Z,34.48
2022-08-30T14:00:23.476Z,34.93
2022-08-30T14:02:55.762Z,33.59
2022-08-30T14:05:48.340Z,34.19
2022-08-30T14:11:06.722Z,34.32
2022-08-30T14:13:33.862Z,34.31
2022-08-30T14:18:50.784Z,34.13
2022-08-30T14:21:18.123Z,35.02
2022-08-30T14:23:50.753Z,35.08
2022-08-30T14:26:21.117Z,35.48
2022-08-30T14:28:51.538Z,35.75
2022-08-30T14:31:19.912Z,35.00
2022-08-30T14:33:46.957Z,35.61
2022-08-30T14:36:15.679Z,35.44
2022-08-30T14:38:43.463Z,35.09
2022-08-30T14:41:11.029Z,34.55
2022-08-30T14:43:40.197Z,34.78
2022-08-30T14:46:08.522Z,34.37
2022-08-30T14:48:37.149Z,34.19
2022-08-30T14:51:12.001Z,33.82
2022-08-30T14:53:38.523Z,34.53
2022-08-30T14:56:14.289Z,33.48
2022-08-30T14:58:41.048Z,34.80
2022-08-30T15:01:12.441Z,34.71
2022-08-30T15:03:40.353Z,35.45
2022-08-30T15:06:07.443Z,35.03
2022-08-30T15:08:35.330Z,34.63
2022-08-30T15:11:07.065Z,34.68
2022-08-30T15:13:33.679Z,35.04
2022-08-30T15:16:00.353Z,34.42
2022-08-30T15:18:27.111Z,34.27
2022-08-30T15:20:53.758Z,34.32
2022-08-30T15:23:22.932Z,34.16
2022-08-30T15:25:51.434Z,33.62
2022-08-30T15:28:19.194Z,34.61
2022-08-30T15:30:45.871Z,35.18
2022-08-30T15:33:12.414Z,34.78
2022-08-30T15:35:38.938Z,34.89
2022-08-30T15:38:06.218Z,35.01
2022-08-30T15:40:33.280Z,34.64
2022-08-30T15:43:04.011Z,35.12
2022-08-30T15:45:30.669Z,35.57
2022-08-30T15:48:00.640Z,35.54
2022-08-30T15:50:28.026Z,34.89
2022-08-30T15:52:54.823Z,35.24
2022-08-30T15:55:21.593Z,35.80
2022-08-30T15:57:48.213Z,35.44
2022-08-30T16:00:15.418Z,36.21
2022-08-30T16:02:42.126Z,36.10
2022-08-30T16:05:09.979Z,36.43
2022-08-30T16:07:40.687Z,36.39
2022-08-30T16:10:08.630Z,36.52
2022-08-30T16:12:35.283Z,36.41
2022-08-30T16:15:01.809Z,36.15
2022-08-30T16:17:28.626Z,37.01
2022-08-30T16:19:58.931Z,36.60
2022-08-30T16:22:26.524Z,36.49
2022-08-30T16:24:53.174Z,36.76
2022-08-30T16:27:21.033Z,37.28
2022-08-30T16:29:48.208Z,38.01
2022-08-30T16:32:17.309Z,38.18
2022-08-30T16:34:43.807Z,38.19
2022-08-30T16:37:10.397Z,37.80
2022-08-30T16:39:36.949Z,38.20
2022-08-30T16:42:04.511Z,38.63
2022-08-30T16:44:33.322Z,38.49
2022-08-30T16:47:00.181Z,38.01
2022-08-30T16:49:26.745Z,38.67
2022-08-30T16:51:54.055Z,39.19
2022-08-30T16:54:21.070Z,38.24
2022-08-30T16:56:47.608Z,39.11
2022-08-30T16:59:14.510Z,39.06
2022-08-30T17:01:44.920Z,39.09
2022-08-30T17:04:13.012Z,39.96
2022-08-30T17:06:42.574Z,39.87
2022-08-30T17:09:09.629Z,40.47
2022-08-30T17:11:38.102Z,40.75
2022-08-30T17:14:07.567Z,40.87
2022-08-30T17:16:36.995Z,40.60
2022-08-30T17:19:04.590Z,41.39
2022-08-30T17:21:32.246Z,41.39
2022-08-30T17:24:01.641Z,41.03
2022-08-30T17:26:33.253Z,41.08
2022-08-30T17:29:00.259Z,41.46
2022-08-30T17:31:30.229Z,41.61
2022-08-30T17:34:04.249Z,41.99
2022-08-30T17:36:36.365Z,41.70
2022-08-30T17:39:11.317Z,41.84
2022-08-30T17:41:41.151Z,42.16
2022-08-30T17:44:16.727Z,41.87
2022-08-30T17:46:43.487Z,42.01
2022-08-30T17:49:10.558Z,42.29
2022-08-30T17:51:40.875Z,42.35
2022-08-30T17:54:09.058Z,42.37
2022-08-30T17:56:35.837Z,42.49
2022-08-30T17:59:04.961Z,42.52
2022-08-30T18:01:31.981Z,42.68
2022-08-30T18:04:01.980Z,43.03
2022-08-30T18:06:33.679Z,43.25
2022-08-30T18:09:01.168Z,42.90
2022-08-30T18:11:27.777Z,43.32
2022-08-30T18:13:54.325Z,43.66
2022-08-30T18:16:21.646Z,43.95
2022-08-30T18:18:55.841Z,43.58
2022-08-30T18:21:24.358Z,43.61
2022-08-30T18:23:52.135Z,44.25
2022-08-30T18:26:24.057Z,44.34
2022-08-30T18:28:51.198Z,43.27
2022-08-30T18:31:17.733Z,44.17
2022-08-30T18:33:44.568Z,43.55
2022-08-30T18:36:11.232Z,44.05
2022-08-30T18:38:38.722Z,44.44
2022-08-30T18:41:08.370Z,44.42
2022-08-30T18:43:35.533Z,43.61
2022-08-30T18:46:09.395Z,44.78
2022-08-30T18:48:36.825Z,44.11
2022-08-30T18:51:03.962Z,43.62
2022-08-30T18:53:32.310Z,44.67
2022-08-30T18:55:59.422Z,44.98
2022-08-30T18:58:25.981Z,45.15
2022-08-30T19:00:56.721Z,45.25
2022-08-30T19:03:23.705Z,44.43
2022-08-30T19:05:50.519Z,44.87
2022-08-30T19:08:17.465Z,45.47
2022-08-30T19:10:44.362Z,44.87
2022-08-30T19:13:11.116Z,44.62
2022-08-30T19:15:37.882Z,44.53
2022-08-30T19:18:16.605Z,44.92
2022-08-30T19:20:44.716Z,44.79
2022-08-30T19:23:11.578Z,44.78
2022-08-30T19:25:40.741Z,45.73
2022-08-30T19:28:07.783Z,45.32
2022-08-30T19:30:34.765Z,45.24
2022-08-30T19:33:01.343Z,45.67
2022-08-30T19:35:30.089Z,45.81
2022-08-30T19:37:57.388Z,45.43
2022-08-30T19:40:23.950Z,45.79
2022-08-30T19:42:52.379Z,45.86
2022-08-30T19:45:21.604Z,46.07
2022-08-30T19:47:49.744Z,45.97
2022-08-30T19:50:16.871Z,45.25
2022-08-30T19:52:47.327Z,45.61
2022-08-30T19:55:18.133Z,45.88
2022-08-30T19:57:50.313Z,46.44
2022-08-30T20:00:17.397Z,45.76
2022-08-30T20:02:44.257Z,46.44
2022-08-30T20:05:17.176Z,46.66
2022-08-30T20:07:44.008Z,46.41
2022-08-30T20:10:13.587Z,46.85
2022-08-30T20:12:45.436Z,46.68
2022-08-30T20:15:15.548Z,46.31
2022-08-30T20:18:02.731Z,47.59
2022-08-30T20:20:31.934Z,46.98
2022-08-30T20:22:59.893Z,47.33
2022-08-30T20:25:28.826Z,47.58
2022-08-30T20:27:55.818Z,47.39
2022-08-30T20:30:22.437Z,46.77
2022-08-30T20:32:49.415Z,46.19
2022-08-30T20:35:17.634Z,47.26
2022-08-30T20:37:44.439Z,46.83
2022-08-30T20:40:15.635Z,47.15
2022-08-30T20:42:45.390Z,47.50
2022-08-30T20:45:15.656Z,47.76
2022-08-30T20:47:43.386Z,47.09
2022-08-30T20:50:15.128Z,47.26
2022-08-30T20:52:42.693Z,47.59
2022-08-30T20:55:10.238Z,48.16
2022-08-30T20:57:36.938Z,48.32
2022-08-30T21:00:08.612Z,47.84
2022-08-30T21:02:36.868Z,48.04
2022-08-30T21:05:10.997Z,48.29
2022-08-30T21:07:37.561Z,47.66
2022-08-30T21:10:05.352Z,47.10
2022-08-30T21:12:32.517Z,47.78
2022-08-30T21:14:59.222Z,47.73
2022-08-30T21:17:27.153Z,47.82
2022-08-30T21:19:55.263Z,47.69
2022-08-30T21:22:22.998Z,47.93
2022-08-30T21:24:49.738Z,47.91
2022-08-30T21:27:16.453Z,48.00
2022-08-30T21:29:43.000Z,47.55
2022-08-30T21:32:09.831Z,47.33
2022-08-30T21:34:55.536Z,47.84
2022-08-30T21:37:22.374Z,48.44
2022-08-30T21:39:49.499Z,47.94
2022-08-30T21:42:16.658Z,47.97
2022-08-30T21:44:43.211Z,48.02
2022-08-30T21:47:10.143Z,47.79
2022-08-30T21:49:37.214Z,48.57
2022-08-30T21:52:03.949Z,48.03
2022-08-30T21:54:31.253Z,47.86
2022-08-30T21:57:04.809Z,47.85
2022-08-30T21:59:32.328Z,47.65
2022-08-30T22:01:59.280Z,47.15
2022-08-30T22:04:26.553Z,47.84
2022-08-30T22:06:53.789Z,47.39
2022-08-30T22:09:23.984Z,47.27
2022-08-30T22:11:51.212Z,47.11
2022-08-30T22:14:19.463Z,47.43
2022-08-30T22:16:46.044Z,47.51
2022-08-30T22:19:12.791Z,47.63
2022-08-30T22:21:41.870Z,47.23
2022-08-30T22:24:09.771Z,47.93
2022-08-30T22:26:36.826Z,47.23
2022-08-30T22:29:05.657Z,48.14
2022-08-30T22:31:32.437Z,47.58
2022-08-30T22:33:59.127Z,47.60
2022-08-30T22:36:32.613Z,47.78
2022-08-30T22:39:00.631Z,47.78
2022-08-30T22:41:31.280Z,47.88
2022-08-30T22:43:57.999Z,48.06
2022-08-30T22:46:33.814Z,47.90
2022-08-30T22:49:02.335Z,47.45
2022-08-30T22:51:29.076Z,47.29
2022-08-30T22:53:55.853Z,47.46
2022-08-30T22:56:25.046Z,47.64
2022-08-30T22:58:52.376Z,47.64
2022-08-30T23:01:26.688Z,47.57
2022-08-30T23:03:53.424Z,47.78
2022-08-30T23:06:19.991Z,47.40
2022-08-30T23:08:46.771Z,47.63
2022-08-30T23:11:14.042Z,47.99
2022-08-30T23:13:41.390Z,48.17
2022-08-30T23:16:08.545Z,47.96
2022-08-30T23:18:36.980Z,47.97
2022-08-30T23:21:16.249Z,48.72
2022-08-30T23:24:01.985Z,48.16
2022-08-30T23:26:47.503Z,49.30
2022-08-30T23:29:32.824Z,49.36
2022-08-30T23:32:18.133Z,49.04
2022-08-30T23:35:03.927Z,50.45
2022-08-30T23:37:53.179Z,49.36
2022-08-30T23:40:39.633Z,49.19
2022-08-30T23:43:25.238Z,50.05
2022-08-30T23:46:10.167Z,50.45
2022-08-30T23:48:55.473Z,50.87
2022-08-30T23:51:40.846Z,51.04
2022-08-30T23:54:27.202Z,51.91
2022-08-30T23:57:12.649Z,51.88
2022-08-30T23:59:58.995Z,52.90
